sensor_id;sensor_type;location;lat;lon;timestamp;temperature;humidity
19044;DHT22;9654;52.302;8.120;2024-01-07T00:00:06;0.00;99.90
19044;DHT22;9654;52.302;8.120;2024-01-07T00:02:33;0.00;99.90
19044;DHT22;9654;52.302;8.120;2024-01-07T00:05:01;0.00;99.90
19044;DHT22;9654;52.302;8.120;2024-01-07T00:07:29;0.00;99.90
19044;DHT22;9654;52.302;8.120;2024-01-07T00:09:55;0.00;99.90
19044;DHT22;9654;52.302;8.120;2024-01-07T00:12:22;0.00;99.90
19044;DHT22;9654;52.302;8.120;2024-01-07T00:14:50;-0.10;99.90
19044;DHT22;9654;52.302;8.120;2024-01-07T00:17:17;-0.10;99.90
19044;DHT22;9654;52.302;8.120;2024-01-07T00:19:44;-0.10;99.90
19044;DHT22;9654;52.302;8.120;2024-01-07T00:22:12;-0.10;99.90
19044;DHT22;9654;52.302;8.120;2024-01-07T00:24:39;-0.10;99.90
19044;DHT22;9654;52.302;8.120;2024-01-07T00:27:06;-0.10;99.90
19044;DHT22;9654;52.302;8.120;2024-01-07T00:29:34;-0.10;99.90
19044;DHT22;9654;52.302;8.120;2024-01-07T00:32:01;-0.10;99.90
19044;DHT22;9654;52.302;8.120;2024-01-07T00:34:28;-0.10;99.90
19044;DHT22;9654;52.302;8.120;2024-01-07T00:36:55;-0.10;99.90
19044;DHT22;9654;52.302;8.120;2024-01-07T00:39:23;-0.10;99.90
19044;DHT22;9654;52.302;8.120;2024-01-07T00:41:50;-0.10;99.90
19044;DHT22;9654;52.302;8.120;2024-01-07T00:44:16;-0.10;99.90
19044;DHT22;9654;52.302;8.120;2024-01-07T00:46:43;-0.10;99.90
19044;DHT22;9654;52.302;8.120;2024-01-07T00:49:10;-0.10;99.90
19044;DHT22;9654;52.302;8.120;2024-01-07T00:51:37;-0.10;99.90
19044;DHT22;9654;52.302;8.120;2024-01-07T00:54:04;-0.10;99.90
19044;DHT22;9654;52.302;8.120;2024-01-07T00:56:32;-0.20;99.90
19044;DHT22;9654;52.302;8.120;2024-01-07T00:58:59;-0.20;99.90
19044;DHT22;9654;52.302;8.120;2024-01-07T01:01:27;-0.20;99.90
19044;DHT22;9654;52.302;8.120;2024-01-07T01:03:54;-0.20;99.90
19044;DHT22;9654;52.302;8.120;2024-01-07T01:06:20;-0.20;99.90
19044;DHT22;9654;52.302;8.120;2024-01-07T01:08:47;-0.20;99.90
19044;DHT22;9654;52.302;8.120;2024-01-07T01:11:14;-0.20;99.90
19044;DHT22;9654;52.302;8.120;2024-01-07T01:13:43;-0.20;99.90
19044;DHT22;9654;52.302;8.120;2024-01-07T01:16:09;-0.30;99.90
19044;DHT22;9654;52.302;8.120;2024-01-07T01:18:36;-0.30;99.90
19044;DHT22;9654;52.302;8.120;2024-01-07T01:21:04;-0.30;99.90
19044;DHT22;9654;52.302;8.120;2024-01-07T01:23:31;-0.20;99.90
19044;DHT22;9654;52.302;8.120;2024-01-07T01:25:57;-0.20;99.90
19044;DHT22;9654;52.302;8.120;2024-01-07T01:28:24;-0.20;99.90
19044;DHT22;9654;52.302;8.120;2024-01-07T01:30:53;-0.30;99.90
19044;DHT22;9654;52.302;8.120;2024-01-07T01:33:19;-0.30;99.90
19044;DHT22;9654;52.302;8.120;2024-01-07T01:35:46;-0.30;99.90
19044;DHT22;9654;52.302;8.120;2024-01-07T01:38:13;-0.20;99.90
19044;DHT22;9654;52.302;8.120;2024-01-07T01:40:40;-0.30;99.90
19044;DHT22;9654;52.302;8.120;2024-01-07T01:43:07;-0.30;99.90
19044;DHT22;9654;52.302;8.120;2024-01-07T01:45:34;-0.30;99.90
19044;DHT22;9654;52.302;8.120;2024-01-07T01:48:03;-0.30;99.90
19044;DHT22;9654;52.302;8.120;2024-01-07T01:50:30;-0.30;99.90
19044;DHT22;9654;52.302;8.120;2024-01-07T01:52:57;-0.30;99.90
19044;DHT22;9654;52.302;8.120;2024-01-07T01:55:23;-0.30;99.90
19044;DHT22;9654;52.302;8.120;2024-01-07T01:57:52;-0.30;99.90
19044;DHT22;9654;52.302;8.120;2024-01-07T02:00:19;-0.30;99.90
19044;DHT22;9654;52.302;8.120;2024-01-07T02:02:46;-0.30;99.90
19044;DHT22;9654;52.302;8.120;2024-01-07T02:05:15;-0.30;99.90
19044;DHT22;9654;52.302;8.120;2024-01-07T02:07:42;-0.30;99.90
19044;DHT22;9654;52.302;8.120;2024-01-07T02:10:09;-0.40;99.90
19044;DHT22;9654;52.302;8.120;2024-01-07T02:12:36;-0.40;99.90
19044;DHT22;9654;52.302;8.120;2024-01-07T02:15:03;-0.40;99.90
19044;DHT22;9654;52.302;8.120;2024-01-07T02:17:30;-0.30;99.90
19044;DHT22;9654;52.302;8.120;2024-01-07T02:19:57;-0.30;99.90
19044;DHT22;9654;52.302;8.120;2024-01-07T02:22:25;-0.40;99.90
19044;DHT22;9654;52.302;8.120;2024-01-07T02:24:54;-0.40;99.90
19044;DHT22;9654;52.302;8.120;2024-01-07T02:27:20;-0.40;99.90
19044;DHT22;9654;52.302;8.120;2024-01-07T02:29:47;-0.40;99.90
19044;DHT22;9654;52.302;8.120;2024-01-07T02:32:14;-0.40;99.90
19044;DHT22;9654;52.302;8.120;2024-01-07T02:34:41;-0.40;99.90
19044;DHT22;9654;52.302;8.120;2024-01-07T02:37:09;-0.40;99.90
19044;DHT22;9654;52.302;8.120;2024-01-07T02:39:36;-0.40;99.90
19044;DHT22;9654;52.302;8.120;2024-01-07T02:42:05;-0.50;99.90
19044;DHT22;9654;52.302;8.120;2024-01-07T02:44:32;-0.40;99.90
19044;DHT22;9654;52.302;8.120;2024-01-07T02:46:58;-0.50;99.90
19044;DHT22;9654;52.302;8.120;2024-01-07T02:49:25;-0.50;99.90
19044;DHT22;9654;52.302;8.120;2024-01-07T02:51:52;-0.40;99.90
19044;DHT22;9654;52.302;8.120;2024-01-07T02:54:19;-0.40;99.90
19044;DHT22;9654;52.302;8.120;2024-01-07T02:56:46;-0.40;99.90
19044;DHT22;9654;52.302;8.120;2024-01-07T02:59:14;-0.40;99.90
19044;DHT22;9654;52.302;8.120;2024-01-07T03:01:41;-0.40;99.90
19044;DHT22;9654;52.302;8.120;2024-01-07T03:04:13;-0.40;99.90
19044;DHT22;9654;52.302;8.120;2024-01-07T03:06:40;-0.40;99.90
19044;DHT22;9654;52.302;8.120;2024-01-07T03:09:07;-0.40;99.90
19044;DHT22;9654;52.302;8.120;2024-01-07T03:11:39;-0.40;99.90
19044;DHT22;9654;52.302;8.120;2024-01-07T03:14:06;-0.40;99.90
19044;DHT22;9654;52.302;8.120;2024-01-07T03:16:34;-0.40;99.90
19044;DHT22;9654;52.302;8.120;2024-01-07T03:19:01;-0.50;99.90
19044;DHT22;9654;52.302;8.120;2024-01-07T03:21:30;-0.50;99.90
19044;DHT22;9654;52.302;8.120;2024-01-07T03:23:57;-0.40;99.90
19044;DHT22;9654;52.302;8.120;2024-01-07T03:26:24;-0.40;99.90
19044;DHT22;9654;52.302;8.120;2024-01-07T03:28:51;-0.50;99.90
19044;DHT22;9654;52.302;8.120;2024-01-07T03:31:19;-0.50;99.90
19044;DHT22;9654;52.302;8.120;2024-01-07T03:33:50;-0.50;99.90
19044;DHT22;9654;52.302;8.120;2024-01-07T03:36:17;-0.50;99.90
19044;DHT22;9654;52.302;8.120;2024-01-07T03:38:44;-0.50;99.90
19044;DHT22;9654;52.302;8.120;2024-01-07T03:41:16;-0.60;99.90
19044;DHT22;9654;52.302;8.120;2024-01-07T03:43:44;-0.60;99.90
19044;DHT22;9654;52.302;8.120;2024-01-07T03:46:11;-0.50;99.90
19044;DHT22;9654;52.302;8.120;2024-01-07T03:48:38;-0.50;99.90
19044;DHT22;9654;52.302;8.120;2024-01-07T03:51:06;-0.60;99.90
19044;DHT22;9654;52.302;8.120;2024-01-07T03:53:33;-0.60;99.90
19044;DHT22;9654;52.302;8.120;2024-01-07T03:56:00;-0.60;99.90
19044;DHT22;9654;52.302;8.120;2024-01-07T03:58:27;-0.60;99.90
19044;DHT22;9654;52.302;8.120;2024-01-07T04:00:54;-0.60;99.90
19044;DHT22;9654;52.302;8.120;2024-01-07T04:03:21;-0.60;99.90
19044;DHT22;9654;52.302;8.120;2024-01-07T04:05:48;-0.60;99.90
19044;DHT22;9654;52.302;8.120;2024-01-07T04:08:16;-0.60;99.90
19044;DHT22;9654;52.302;8.120;2024-01-07T04:10:43;-0.60;99.90
19044;DHT22;9654;52.302;8.120;2024-01-07T04:13:10;-0.60;99.90
19044;DHT22;9654;52.302;8.120;2024-01-07T04:15:37;-0.60;99.90
19044;DHT22;9654;52.302;8.120;2024-01-07T04:18:04;-0.60;99.90
19044;DHT22;9654;52.302;8.120;2024-01-07T04:20:31;-0.60;99.90
19044;DHT22;9654;52.302;8.120;2024-01-07T04:22:58;-0.60;99.90
19044;DHT22;9654;52.302;8.120;2024-01-07T04:25:26;-0.60;99.90
19044;DHT22;9654;52.302;8.120;2024-01-07T04:27:53;-0.60;99.90
19044;DHT22;9654;52.302;8.120;2024-01-07T04:30:21;-0.70;99.90
19044;DHT22;9654;52.302;8.120;2024-01-07T04:32:47;-0.70;99.90
19044;DHT22;9654;52.302;8.120;2024-01-07T04:35:14;-0.70;99.90
19044;DHT22;9654;52.302;8.120;2024-01-07T04:37:41;-0.80;99.90
19044;DHT22;9654;52.302;8.120;2024-01-07T04:40:10;-0.80;99.90
19044;DHT22;9654;52.302;8.120;2024-01-07T04:42:38;-0.70;99.90
19044;DHT22;9654;52.302;8.120;2024-01-07T04:45:05;-0.80;99.90
19044;DHT22;9654;52.302;8.120;2024-01-07T04:47:33;-0.80;99.90
19044;DHT22;9654;52.302;8.120;2024-01-07T04:50:01;-0.90;99.90
19044;DHT22;9654;52.302;8.120;2024-01-07T04:52:28;-0.90;99.90
19044;DHT22;9654;52.302;8.120;2024-01-07T04:54:55;-0.90;99.90
19044;DHT22;9654;52.302;8.120;2024-01-07T04:57:22;-0.90;99.90
19044;DHT22;9654;52.302;8.120;2024-01-07T04:59:51;-0.90;99.90
19044;DHT22;9654;52.302;8.120;2024-01-07T05:02:18;-1.00;99.90
19044;DHT22;9654;52.302;8.120;2024-01-07T05:04:45;-1.00;99.90
19044;DHT22;9654;52.302;8.120;2024-01-07T05:07:12;-0.90;99.90
19044;DHT22;9654;52.302;8.120;2024-01-07T05:09:39;-0.90;99.90
19044;DHT22;9654;52.302;8.120;2024-01-07T05:12:06;-1.00;99.90
19044;DHT22;9654;52.302;8.120;2024-01-07T05:14:33;-1.00;99.90
19044;DHT22;9654;52.302;8.120;2024-01-07T05:17:01;-1.10;99.90
19044;DHT22;9654;52.302;8.120;2024-01-07T05:19:29;-1.10;99.90
19044;DHT22;9654;52.302;8.120;2024-01-07T05:21:56;-1.10;99.90
19044;DHT22;9654;52.302;8.120;2024-01-07T05:24:22;-1.20;99.90
19044;DHT22;9654;52.302;8.120;2024-01-07T05:26:49;-1.20;99.90
19044;DHT22;9654;52.302;8.120;2024-01-07T05:29:16;-1.20;99.90
19044;DHT22;9654;52.302;8.120;2024-01-07T05:31:43;-1.20;99.90
19044;DHT22;9654;52.302;8.120;2024-01-07T05:34:11;-1.20;99.90
19044;DHT22;9654;52.302;8.120;2024-01-07T05:36:38;-1.30;99.90
19044;DHT22;9654;52.302;8.120;2024-01-07T05:39:05;-1.20;99.90
19044;DHT22;9654;52.302;8.120;2024-01-07T05:41:33;-1.30;99.90
19044;DHT22;9654;52.302;8.120;2024-01-07T05:43:59;-1.30;99.90
19044;DHT22;9654;52.302;8.120;2024-01-07T05:46:26;-1.30;99.90
19044;DHT22;9654;52.302;8.120;2024-01-07T05:48:53;-1.30;99.90
19044;DHT22;9654;52.302;8.120;2024-01-07T05:51:21;-1.40;99.90
19044;DHT22;9654;52.302;8.120;2024-01-07T05:53:48;-1.40;99.90
19044;DHT22;9654;52.302;8.120;2024-01-07T05:56:15;-1.40;99.90
19044;DHT22;9654;52.302;8.120;2024-01-07T05:58:42;-1.40;99.90
19044;DHT22;9654;52.302;8.120;2024-01-07T06:01:09;-1.40;99.90
19044;DHT22;9654;52.302;8.120;2024-01-07T06:03:36;-1.40;99.90
19044;DHT22;9654;52.302;8.120;2024-01-07T06:06:03;-1.40;99.90
19044;DHT22;9654;52.302;8.120;2024-01-07T06:08:31;-1.50;99.90
19044;DHT22;9654;52.302;8.120;2024-01-07T06:10:58;-1.50;99.90
19044;DHT22;9654;52.302;8.120;2024-01-07T06:13:25;-1.60;99.90
19044;DHT22;9654;52.302;8.120;2024-01-07T06:15:52;-1.60;99.90
19044;DHT22;9654;52.302;8.120;2024-01-07T06:18:19;-1.70;99.90
19044;DHT22;9654;52.302;8.120;2024-01-07T06:20:46;-1.70;99.90
19044;DHT22;9654;52.302;8.120;2024-01-07T06:23:14;-1.70;99.90
19044;DHT22;9654;52.302;8.120;2024-01-07T06:25:42;-1.70;99.90
19044;DHT22;9654;52.302;8.120;2024-01-07T06:28:09;-1.80;99.90
19044;DHT22;9654;52.302;8.120;2024-01-07T06:30:36;-1.80;99.90
19044;DHT22;9654;52.302;8.120;2024-01-07T06:33:04;-1.80;99.90
19044;DHT22;9654;52.302;8.120;2024-01-07T06:35:31;-1.80;99.90
19044;DHT22;9654;52.302;8.120;2024-01-07T06:37:58;-1.70;99.90
19044;DHT22;9654;52.302;8.120;2024-01-07T06:40:25;-1.70;99.90
19044;DHT22;9654;52.302;8.120;2024-01-07T06:42:53;-1.70;99.90
19044;DHT22;9654;52.302;8.120;2024-01-07T06:45:20;-1.70;99.90
19044;DHT22;9654;52.302;8.120;2024-01-07T06:47:47;-1.60;99.90
19044;DHT22;9654;52.302;8.120;2024-01-07T06:50:14;-1.60;99.90
19044;DHT22;9654;52.302;8.120;2024-01-07T06:52:42;-1.70;99.90
19044;DHT22;9654;52.302;8.120;2024-01-07T06:55:09;-1.60;99.90
19044;DHT22;9654;52.302;8.120;2024-01-07T06:57:35;-1.60;99.90
19044;DHT22;9654;52.302;8.120;2024-01-07T07:00:05;-1.60;99.90
19044;DHT22;9654;52.302;8.120;2024-01-07T07:02:33;-1.60;99.90
19044;DHT22;9654;52.302;8.120;2024-01-07T07:05:00;-1.60;99.90
19044;DHT22;9654;52.302;8.120;2024-01-07T07:07:27;-1.60;99.90
19044;DHT22;9654;52.302;8.120;2024-01-07T07:09:53;-1.60;99.90
19044;DHT22;9654;52.302;8.120;2024-01-07T07:12:20;-1.60;99.90
19044;DHT22;9654;52.302;8.120;2024-01-07T07:14:47;-1.50;99.90
19044;DHT22;9654;52.302;8.120;2024-01-07T07:17:16;-1.50;99.90
19044;DHT22;9654;52.302;8.120;2024-01-07T07:19:43;-1.50;99.90
19044;DHT22;9654;52.302;8.120;2024-01-07T07:22:10;-1.50;99.90
19044;DHT22;9654;52.302;8.120;2024-01-07T07:24:40;-1.50;99.90
19044;DHT22;9654;52.302;8.120;2024-01-07T07:27:07;-1.50;99.90
19044;DHT22;9654;52.302;8.120;2024-01-07T07:29:34;-1.50;99.90
19044;DHT22;9654;52.302;8.120;2024-01-07T07:32:01;-1.50;99.90
19044;DHT22;9654;52.302;8.120;2024-01-07T07:34:29;-1.50;99.90
19044;DHT22;9654;52.302;8.120;2024-01-07T07:36:56;-1.50;99.90
19044;DHT22;9654;52.302;8.120;2024-01-07T07:39:23;-1.50;99.90
19044;DHT22;9654;52.302;8.120;2024-01-07T07:41:50;-1.50;99.90
19044;DHT22;9654;52.302;8.120;2024-01-07T07:44:16;-1.50;99.90
19044;DHT22;9654;52.302;8.120;2024-01-07T07:46:43;-1.50;99.90
19044;DHT22;9654;52.302;8.120;2024-01-07T07:49:10;-1.50;99.90
19044;DHT22;9654;52.302;8.120;2024-01-07T07:51:39;-1.50;99.90
19044;DHT22;9654;52.302;8.120;2024-01-07T07:54:06;-1.50;99.90
19044;DHT22;9654;52.302;8.120;2024-01-07T07:56:33;-1.50;99.90
19044;DHT22;9654;52.302;8.120;2024-01-07T07:59:01;-1.50;99.90
19044;DHT22;9654;52.302;8.120;2024-01-07T08:01:28;-1.50;99.90
19044;DHT22;9654;52.302;8.120;2024-01-07T08:03:55;-1.50;99.90
19044;DHT22;9654;52.302;8.120;2024-01-07T08:06:22;-1.50;99.90
19044;DHT22;9654;52.302;8.120;2024-01-07T08:08:50;-1.50;99.90
19044;DHT22;9654;52.302;8.120;2024-01-07T08:11:17;-1.40;99.90
19044;DHT22;9654;52.302;8.120;2024-01-07T08:13:44;-1.50;99.90
19044;DHT22;9654;52.302;8.120;2024-01-07T08:16:11;-1.50;99.90
19044;DHT22;9654;52.302;8.120;2024-01-07T08:18:38;-1.50;99.90
19044;DHT22;9654;52.302;8.120;2024-01-07T08:21:06;-1.50;99.90
19044;DHT22;9654;52.302;8.120;2024-01-07T08:23:32;-1.50;99.90
19044;DHT22;9654;52.302;8.120;2024-01-07T08:26:01;-1.50;99.90
19044;DHT22;9654;52.302;8.120;2024-01-07T08:28:28;-1.50;99.90
19044;DHT22;9654;52.302;8.120;2024-01-07T08:30:55;-1.60;99.90
19044;DHT22;9654;52.302;8.120;2024-01-07T08:33:22;-1.60;99.90
19044;DHT22;9654;52.302;8.120;2024-01-07T08:35:49;-1.60;99.90
19044;DHT22;9654;52.302;8.120;2024-01-07T08:38:16;-1.70;99.90
19044;DHT22;9654;52.302;8.120;2024-01-07T08:40:43;-1.70;99.90
19044;DHT22;9654;52.302;8.120;2024-01-07T08:43:11;-1.70;99.90
19044;DHT22;9654;52.302;8.120;2024-01-07T08:45:38;-1.70;99.90
19044;DHT22;9654;52.302;8.120;2024-01-07T08:48:06;-1.70;99.90
19044;DHT22;9654;52.302;8.120;2024-01-07T08:50:33;-1.70;99.90
19044;DHT22;9654;52.302;8.120;2024-01-07T08:53:00;-1.70;99.90
19044;DHT22;9654;52.302;8.120;2024-01-07T08:55:27;-1.70;99.90
19044;DHT22;9654;52.302;8.120;2024-01-07T08:57:54;-1.70;99.90
19044;DHT22;9654;52.302;8.120;2024-01-07T09:00:22;-1.70;99.90
19044;DHT22;9654;52.302;8.120;2024-01-07T09:02:52;-1.80;99.90
19044;DHT22;9654;52.302;8.120;2024-01-07T09:05:19;-1.80;99.90
19044;DHT22;9654;52.302;8.120;2024-01-07T09:07:46;-1.80;99.90
19044;DHT22;9654;52.302;8.120;2024-01-07T09:10:12;-1.80;99.90
19044;DHT22;9654;52.302;8.120;2024-01-07T09:12:40;-1.80;99.90
19044;DHT22;9654;52.302;8.120;2024-01-07T09:15:08;-1.80;99.90
19044;DHT22;9654;52.302;8.120;2024-01-07T09:17:37;-1.80;99.90
19044;DHT22;9654;52.302;8.120;2024-01-07T09:20:05;-1.80;99.90
19044;DHT22;9654;52.302;8.120;2024-01-07T09:22:33;-1.80;99.90
19044;DHT22;9654;52.302;8.120;2024-01-07T09:25:01;-1.70;99.90
19044;DHT22;9654;52.302;8.120;2024-01-07T09:27:29;-1.70;99.90
19044;DHT22;9654;52.302;8.120;2024-01-07T09:29:56;-1.70;99.90
19044;DHT22;9654;52.302;8.120;2024-01-07T09:32:23;-1.60;99.90
19044;DHT22;9654;52.302;8.120;2024-01-07T09:34:52;-1.60;99.90
19044;DHT22;9654;52.302;8.120;2024-01-07T09:37:19;-1.60;99.90
19044;DHT22;9654;52.302;8.120;2024-01-07T09:39:46;-1.60;99.90
19044;DHT22;9654;52.302;8.120;2024-01-07T09:42:14;-1.50;99.90
19044;DHT22;9654;52.302;8.120;2024-01-07T09:44:41;-1.40;99.90
19044;DHT22;9654;52.302;8.120;2024-01-07T09:47:11;-1.40;99.90
19044;DHT22;9654;52.302;8.120;2024-01-07T09:49:38;-1.40;99.90
19044;DHT22;9654;52.302;8.120;2024-01-07T09:52:08;-1.40;99.90
19044;DHT22;9654;52.302;8.120;2024-01-07T09:54:36;-1.40;99.90
19044;DHT22;9654;52.302;8.120;2024-01-07T09:57:05;-1.40;99.90
19044;DHT22;9654;52.302;8.120;2024-01-07T09:59:33;-1.40;99.90
19044;DHT22;9654;52.302;8.120;2024-01-07T10:02:00;-1.50;99.90
19044;DHT22;9654;52.302;8.120;2024-01-07T10:04:28;-1.50;99.90
19044;DHT22;9654;52.302;8.120;2024-01-07T10:06:56;-1.40;99.90
19044;DHT22;9654;52.302;8.120;2024-01-07T10:09:29;-1.40;99.90
19044;DHT22;9654;52.302;8.120;2024-01-07T10:11:57;-1.40;99.90
19044;DHT22;9654;52.302;8.120;2024-01-07T10:14:23;-1.40;99.90
19044;DHT22;9654;52.302;8.120;2024-01-07T10:16:51;-1.30;99.90
19044;DHT22;9654;52.302;8.120;2024-01-07T10:19:20;-1.30;99.90
19044;DHT22;9654;52.302;8.120;2024-01-07T10:21:58;-1.20;99.90
19044;DHT22;9654;52.302;8.120;2024-01-07T10:24:35;-1.20;99.90
19044;DHT22;9654;52.302;8.120;2024-01-07T10:27:04;-1.20;99.90
19044;DHT22;9654;52.302;8.120;2024-01-07T10:29:31;-1.20;99.90
19044;DHT22;9654;52.302;8.120;2024-01-07T10:31:58;-1.20;99.90
19044;DHT22;9654;52.302;8.120;2024-01-07T10:34:29;-1.20;99.90
19044;DHT22;9654;52.302;8.120;2024-01-07T10:36:55;-1.10;99.90
19044;DHT22;9654;52.302;8.120;2024-01-07T10:39:24;-1.00;99.90
19044;DHT22;9654;52.302;8.120;2024-01-07T10:41:52;-1.00;99.90
19044;DHT22;9654;52.302;8.120;2024-01-07T10:44:24;-1.10;99.90
19044;DHT22;9654;52.302;8.120;2024-01-07T10:46:54;-1.00;99.90
19044;DHT22;9654;52.302;8.120;2024-01-07T10:49:22;-1.10;99.90
19044;DHT22;9654;52.302;8.120;2024-01-07T10:51:56;-1.00;99.90
19044;DHT22;9654;52.302;8.120;2024-01-07T10:54:29;-0.90;99.90
19044;DHT22;9654;52.302;8.120;2024-01-07T10:56:59;-0.90;99.90
19044;DHT22;9654;52.302;8.120;2024-01-07T10:59:26;-0.90;99.90
19044;DHT22;9654;52.302;8.120;2024-01-07T11:01:54;-0.80;99.90
19044;DHT22;9654;52.302;8.120;2024-01-07T11:04:23;-0.80;99.90
19044;DHT22;9654;52.302;8.120;2024-01-07T11:06:59;-0.80;99.90
19044;DHT22;9654;52.302;8.120;2024-01-07T11:09:33;-0.80;99.90
19044;DHT22;9654;52.302;8.120;2024-01-07T11:12:04;-0.80;99.90
19044;DHT22;9654;52.302;8.120;2024-01-07T11:14:35;-0.90;99.90
19044;DHT22;9654;52.302;8.120;2024-01-07T11:17:01;-0.90;99.90
19044;DHT22;9654;52.302;8.120;2024-01-07T11:19:29;-0.90;99.90
19044;DHT22;9654;52.302;8.120;2024-01-07T11:22:21;-0.90;99.90
19044;DHT22;9654;52.302;8.120;2024-01-07T11:24:50;-0.90;99.90
19044;DHT22;9654;52.302;8.120;2024-01-07T11:27:18;-0.80;99.90
19044;DHT22;9654;52.302;8.120;2024-01-07T11:29:53;-0.70;99.90
19044;DHT22;9654;52.302;8.120;2024-01-07T11:32:22;-0.60;99.90
19044;DHT22;9654;52.302;8.120;2024-01-07T11:34:50;-0.70;99.90
19044;DHT22;9654;52.302;8.120;2024-01-07T11:37:19;-0.70;99.90
19044;DHT22;9654;52.302;8.120;2024-01-07T11:39:48;-0.70;99.90
19044;DHT22;9654;52.302;8.120;2024-01-07T11:42:15;-0.80;99.90
19044;DHT22;9654;52.302;8.120;2024-01-07T11:44:47;-0.70;99.90
19044;DHT22;9654;52.302;8.120;2024-01-07T11:47:15;-0.70;99.90
19044;DHT22;9654;52.302;8.120;2024-01-07T11:49:42;-0.70;99.90
19044;DHT22;9654;52.302;8.120;2024-01-07T11:52:09;-0.60;99.90
19044;DHT22;9654;52.302;8.120;2024-01-07T11:54:37;-0.60;99.90
19044;DHT22;9654;52.302;8.120;2024-01-07T11:57:04;-0.60;99.90
19044;DHT22;9654;52.302;8.120;2024-01-07T11:59:31;-0.60;99.90
19044;DHT22;9654;52.302;8.120;2024-01-07T12:02:01;-0.50;99.90
19044;DHT22;9654;52.302;8.120;2024-01-07T12:04:30;-0.60;99.90
19044;DHT22;9654;52.302;8.120;2024-01-07T12:06:57;-0.50;99.90
19044;DHT22;9654;52.302;8.120;2024-01-07T12:09:24;-0.50;99.90
19044;DHT22;9654;52.302;8.120;2024-01-07T12:11:51;-0.50;99.90
19044;DHT22;9654;52.302;8.120;2024-01-07T12:14:18;-0.50;99.90
19044;DHT22;9654;52.302;8.120;2024-01-07T12:16:45;-0.60;99.90
19044;DHT22;9654;52.302;8.120;2024-01-07T12:19:13;-0.60;99.90
19044;DHT22;9654;52.302;8.120;2024-01-07T12:21:40;-0.60;99.90
19044;DHT22;9654;52.302;8.120;2024-01-07T12:24:07;-0.50;99.90
19044;DHT22;9654;52.302;8.120;2024-01-07T12:26:34;-0.60;99.90
19044;DHT22;9654;52.302;8.120;2024-01-07T12:29:02;-0.60;99.90
19044;DHT22;9654;52.302;8.120;2024-01-07T12:31:31;-0.60;99.90
19044;DHT22;9654;52.302;8.120;2024-01-07T12:33:58;-0.60;99.90
19044;DHT22;9654;52.302;8.120;2024-01-07T12:36:26;-0.60;99.90
19044;DHT22;9654;52.302;8.120;2024-01-07T12:38:56;-0.60;99.90
19044;DHT22;9654;52.302;8.120;2024-01-07T12:41:24;-0.50;99.90
19044;DHT22;9654;52.302;8.120;2024-01-07T12:43:51;-0.50;99.90
19044;DHT22;9654;52.302;8.120;2024-01-07T12:46:18;-0.60;99.90
19044;DHT22;9654;52.302;8.120;2024-01-07T12:48:45;-0.50;99.90
19044;DHT22;9654;52.302;8.120;2024-01-07T12:51:12;-0.50;99.90
19044;DHT22;9654;52.302;8.120;2024-01-07T12:53:41;-0.50;99.90
19044;DHT22;9654;52.302;8.120;2024-01-07T12:56:07;-0.50;99.90
19044;DHT22;9654;52.302;8.120;2024-01-07T12:58:34;-0.50;99.90
19044;DHT22;9654;52.302;8.120;2024-01-07T13:01:01;-0.50;99.90
19044;DHT22;9654;52.302;8.120;2024-01-07T13:03:28;-0.40;99.90
19044;DHT22;9654;52.302;8.120;2024-01-07T13:05:55;-0.40;99.90
19044;DHT22;9654;52.302;8.120;2024-01-07T13:08:22;-0.30;99.90
19044;DHT22;9654;52.302;8.120;2024-01-07T13:10:53;-0.30;99.90
19044;DHT22;9654;52.302;8.120;2024-01-07T13:13:20;-0.30;99.90
19044;DHT22;9654;52.302;8.120;2024-01-07T13:15:47;-0.30;99.90
19044;DHT22;9654;52.302;8.120;2024-01-07T13:18:16;-0.40;99.90
19044;DHT22;9654;52.302;8.120;2024-01-07T13:20:43;-0.40;99.90
19044;DHT22;9654;52.302;8.120;2024-01-07T13:23:10;-0.40;99.90
19044;DHT22;9654;52.302;8.120;2024-01-07T13:25:37;-0.40;99.90
19044;DHT22;9654;52.302;8.120;2024-01-07T13:28:05;-0.40;99.90
19044;DHT22;9654;52.302;8.120;2024-01-07T13:30:36;-0.50;99.90
19044;DHT22;9654;52.302;8.120;2024-01-07T13:33:03;-0.50;99.90
19044;DHT22;9654;52.302;8.120;2024-01-07T13:35:30;-0.50;99.90
19044;DHT22;9654;52.302;8.120;2024-01-07T13:37:57;-0.50;99.90
19044;DHT22;9654;52.302;8.120;2024-01-07T13:40:27;-0.50;99.90
19044;DHT22;9654;52.302;8.120;2024-01-07T13:42:54;-0.50;99.90
19044;DHT22;9654;52.302;8.120;2024-01-07T13:45:22;-0.50;99.90
19044;DHT22;9654;52.302;8.120;2024-01-07T13:47:49;-0.50;99.90
19044;DHT22;9654;52.302;8.120;2024-01-07T13:50:16;-0.50;99.90
19044;DHT22;9654;52.302;8.120;2024-01-07T13:52:43;-0.50;99.90
19044;DHT22;9654;52.302;8.120;2024-01-07T13:55:10;-0.50;99.90
19044;DHT22;9654;52.302;8.120;2024-01-07T13:57:37;-0.50;99.90
19044;DHT22;9654;52.302;8.120;2024-01-07T14:00:07;-0.50;99.90
19044;DHT22;9654;52.302;8.120;2024-01-07T14:02:37;-0.50;99.90
19044;DHT22;9654;52.302;8.120;2024-01-07T14:05:05;-0.60;99.90
19044;DHT22;9654;52.302;8.120;2024-01-07T14:07:34;-0.60;99.90
19044;DHT22;9654;52.302;8.120;2024-01-07T14:10:02;-0.60;99.90
19044;DHT22;9654;52.302;8.120;2024-01-07T14:12:30;-0.60;99.90
19044;DHT22;9654;52.302;8.120;2024-01-07T14:14:57;-0.70;99.90
19044;DHT22;9654;52.302;8.120;2024-01-07T14:17:24;-0.70;99.90
19044;DHT22;9654;52.302;8.120;2024-01-07T14:19:52;-0.70;99.90
19044;DHT22;9654;52.302;8.120;2024-01-07T14:22:19;-0.70;99.90
19044;DHT22;9654;52.302;8.120;2024-01-07T14:24:46;-0.70;99.90
19044;DHT22;9654;52.302;8.120;2024-01-07T14:27:14;-0.70;99.90
19044;DHT22;9654;52.302;8.120;2024-01-07T14:29:41;-0.70;99.90
19044;DHT22;9654;52.302;8.120;2024-01-07T14:32:08;-0.70;99.90
19044;DHT22;9654;52.302;8.120;2024-01-07T14:34:38;-0.70;99.90
19044;DHT22;9654;52.302;8.120;2024-01-07T14:37:08;-0.70;99.90
19044;DHT22;9654;52.302;8.120;2024-01-07T14:39:36;-0.70;99.90
19044;DHT22;9654;52.302;8.120;2024-01-07T14:42:03;-0.80;99.90
19044;DHT22;9654;52.302;8.120;2024-01-07T14:44:30;-0.80;99.90
19044;DHT22;9654;52.302;8.120;2024-01-07T14:46:57;-0.80;99.90
19044;DHT22;9654;52.302;8.120;2024-01-07T14:49:24;-0.80;99.90
19044;DHT22;9654;52.302;8.120;2024-01-07T14:51:51;-0.80;99.90
19044;DHT22;9654;52.302;8.120;2024-01-07T14:54:19;-0.80;99.90
19044;DHT22;9654;52.302;8.120;2024-01-07T14:56:46;-0.80;99.90
19044;DHT22;9654;52.302;8.120;2024-01-07T14:59:13;-0.80;99.90
19044;DHT22;9654;52.302;8.120;2024-01-07T15:01:40;-0.80;99.90
19044;DHT22;9654;52.302;8.120;2024-01-07T15:04:09;-0.90;99.90
19044;DHT22;9654;52.302;8.120;2024-01-07T15:06:40;-0.90;99.90
19044;DHT22;9654;52.302;8.120;2024-01-07T15:09:07;-1.00;99.90
19044;DHT22;9654;52.302;8.120;2024-01-07T15:11:36;-1.00;99.90
19044;DHT22;9654;52.302;8.120;2024-01-07T15:14:04;-1.00;99.90
19044;DHT22;9654;52.302;8.120;2024-01-07T15:16:34;-1.00;99.90
19044;DHT22;9654;52.302;8.120;2024-01-07T15:19:02;-1.00;99.90
19044;DHT22;9654;52.302;8.120;2024-01-07T15:21:29;-1.10;99.90
19044;DHT22;9654;52.302;8.120;2024-01-07T15:23:56;-1.10;99.90
19044;DHT22;9654;52.302;8.120;2024-01-07T15:26:23;-1.10;99.90
19044;DHT22;9654;52.302;8.120;2024-01-07T15:28:51;-1.20;99.90
19044;DHT22;9654;52.302;8.120;2024-01-07T15:31:18;-1.20;99.90
19044;DHT22;9654;52.302;8.120;2024-01-07T15:33:45;-1.20;99.90
19044;DHT22;9654;52.302;8.120;2024-01-07T15:36:12;-1.20;99.90
19044;DHT22;9654;52.302;8.120;2024-01-07T15:38:39;-1.20;99.90
19044;DHT22;9654;52.302;8.120;2024-01-07T15:41:06;-1.30;99.90
19044;DHT22;9654;52.302;8.120;2024-01-07T15:43:33;-1.30;99.90
19044;DHT22;9654;52.302;8.120;2024-01-07T15:46:01;-1.30;99.90
19044;DHT22;9654;52.302;8.120;2024-01-07T15:48:29;-1.40;99.90